Portland, Oregon
Traffic Map
Current Weather Conditions
Portland, Oregon
Overcast
Overcast
19°
Feels Like: 19°
Wind Chill: 19° Ceiling: 3700
Heat Index: 19° Visibility: 10mi
Dew Point: 10° Wind: 5mph
Humidity: 54% Direction: 350° (N)
Pressure: 30.26in Gusts: 0mph
Raw Report DataKPDX 231853Z 35004KT 10SM FEW015 OVC037 19/10 A3026 RMK AO2 SLP248 T01940100
Traffic Incident Summary
Active as of:
Severity:
Category:
InformationThere was an issue retrieving the traffic information for this location. Please try a different location or try again shortly.
Advertisements
Track Severe Weather on mobile